Time;durP1;ratioP1;P1;durP2;ratioP2;P2;SDS_P1;SDS_P2;PMS_P1;PMS_P2;Temp;Humidity;BMP_temperature;BMP_pressure;BME280_temperature;BME280_humidity;BME280_pressure;Samples;Min_cycle;Max_cycle;Signal;HPM_P1;HPM_P2
2020/04/13 00:08:30;;;503.8;;;383.9;;;;;;;;;;;;;;;
2020/04/13 00:23:33;;;526.7;;;396.6;;;;;;;;;;;;;;;
2020/04/13 00:38:14;;;535.6;;;401.7;;;;;;;;;;;;;;;
2020/04/13 00:52:51;;;496.9;;;379.6;;;;;;;;;;;;;;;
2020/04/13 01:08:41;;;544.2;;;403.7;;;;;;;;;;;;;;;
2020/04/13 01:23:53;;;525.7;;;389.4;;;;;;;;;;;;;;;
2020/04/13 01:37:28;;;542.4;;;396.5;;;;;;;;;;;;;;;
2020/04/13 01:53:06;;;530.4;;;389.7;;;;;;;;;;;;;;;
2020/04/13 02:07:50;;;497.0;;;369.7;;;;;;;;;;;;;;;
2020/04/13 02:22:03;;;495.7;;;368.3;;;;;;;;;;;;;;;
2020/04/13 02:37:27;;;604.1;;;420.1;;;;;;;;;;;;;;;
2020/04/13 02:51:36;;;561.9;;;396.3;;;;;;;;;;;;;;;
2020/04/13 03:06:11;;;618.0;;;425.1;;;;;;;;;;;;;;;
2020/04/13 03:21:20;;;625.0;;;426.0;;;;;;;;;;;;;;;
2020/04/13 03:36:11;;;558.9;;;392.4;;;;;;;;;;;;;;;
2020/04/13 03:50:47;;;580.4;;;403.2;;;;;;;;;;;;;;;
2020/04/13 04:06:06;;;544.2;;;386.8;;;;;;;;;;;;;;;
2020/04/13 04:20:43;;;613.6;;;424.6;;;;;;;;;;;;;;;
2020/04/13 04:35:17;;;629.1;;;431.9;;;;;;;;;;;;;;;
2020/04/13 04:50:52;;;621.6;;;427.2;;;;;;;;;;;;;;;
2020/04/13 05:05:56;;;562.4;;;395.4;;;;;;;;;;;;;;;
2020/04/13 05:20:00;;;589.6;;;411.3;;;;;;;;;;;;;;;
2020/04/13 05:36:36;;;588.6;;;410.5;;;;;;;;;;;;;;;
2020/04/13 05:49:40;;;665.9;;;450.5;;;;;;;;;;;;;;;
2020/04/13 06:04:45;;;608.3;;;422.2;;;;;;;;;;;;;;;
2020/04/13 06:19:06;;;590.9;;;411.9;;;;;;;;;;;;;;;
2020/04/13 06:34:10;;;645.5;;;437.4;;;;;;;;;;;;;;;
2020/04/13 06:49:45;;;562.9;;;393.7;;;;;;;;;;;;;;;
2020/04/13 07:06:51;;;642.0;;;437.5;;;;;;;;;;;;;;;
2020/04/13 07:18:54;;;593.9;;;412.9;;;;;;;;;;;;;;;
2020/04/13 07:33:28;;;566.7;;;396.3;;;;;;;;;;;;;;;
2020/04/13 08:03:02;;;566.0;;;401.3;;;;;;;;;;;;;;;
2020/04/13 08:17:37;;;634.2;;;430.9;;;;;;;;;;;;;;;
2020/04/13 08:32:41;;;529.3;;;380.7;;;;;;;;;;;;;;;
2020/04/13 08:47:15;;;554.1;;;390.4;;;;;;;;;;;;;;;
2020/04/13 10:22:42;;;7.0;;;5.9;;;;;;;;;;;;;;;
2020/04/13 10:22:49;;;;;;;;;;;16.5;60.3;;;;;;;;;
2020/04/13 10:35:08;;;6.3;;;5.3;;;;;;;;;;;;;;;
2020/04/13 10:35:08;;;;;;;;;;;17.7;57.7;;;;;;;;;
2020/04/13 10:50:17;;;5.4;;;4.8;;;;;;;;;;;;;;;
2020/04/13 10:50:17;;;;;;;;;;;18.8;55.0;;;;;;;;;
2020/04/13 11:05:51;;;4.9;;;4.2;;;;;;;;;;;;;;;
2020/04/13 11:05:51;;;;;;;;;;;19.7;52.7;;;;;;;;;
2020/04/13 11:19:25;;;6.9;;;5.3;;;;;;;;;;;;;;;
2020/04/13 11:19:25;;;;;;;;;;;20.5;51.2;;;;;;;;;
2020/04/13 11:34:30;;;7.1;;;6.6;;;;;;;;;;;;;;;
2020/04/13 11:34:30;;;;;;;;;;;21.0;50.7;;;;;;;;;
2020/04/13 11:49:35;;;10.8;;;10.1;;;;;;;;;;;;;;;
2020/04/13 11:49:35;;;;;;;;;;;21.4;49.9;;;;;;;;;
2020/04/13 12:04:40;;;12.5;;;11.4;;;;;;;;;;;;;;;
2020/04/13 12:04:40;;;;;;;;;;;21.7;48.9;;;;;;;;;
2020/04/13 12:20:15;;;9.2;;;8.6;;;;;;;;;;;;;;;
2020/04/13 12:20:15;;;;;;;;;;;21.9;48.0;;;;;;;;;
2020/04/13 12:33:49;;;8.8;;;8.3;;;;;;;;;;;;;;;
2020/04/13 12:33:49;;;;;;;;;;;22.0;48.0;;;;;;;;;
2020/04/13 12:48:28;;;7.8;;;7.0;;;;;;;;;;;;;;;
2020/04/13 12:48:28;;;;;;;;;;;22.1;48.1;;;;;;;;;
2020/04/13 13:03:19;;;13.0;;;11.9;;;;;;;;;;;;;;;
2020/04/13 13:03:19;;;;;;;;;;;22.2;48.1;;;;;;;;;
2020/04/13 13:18:24;;;21.6;;;19.7;;;;;;;;;;;;;;;
2020/04/13 13:18:25;;;;;;;;;;;22.2;48.3;;;;;;;;;
2020/04/13 13:32:58;;;15.0;;;13.1;;;;;;;;;;;;;;;
2020/04/13 13:32:58;;;;;;;;;;;22.3;48.1;;;;;;;;;
2020/04/13 13:48:34;;;11.3;;;9.8;;;;;;;;;;;;;;;
2020/04/13 13:48:34;;;;;;;;;;;22.3;48.4;;;;;;;;;
2020/04/13 18:46:14;;;10.2;;;8.6;;;;;;;;;;;;;;;
2020/04/13 18:46:14;;;;;;;;;;;21.0;48.8;;;;;;;;;
2020/04/13 19:05:19;;;5.6;;;5.2;;;;;;;;;;;;;;;
2020/04/13 19:05:19;;;;;;;;;;;21.3;48.5;;;;;;;;;
